Milingimbi, Australia
Current Conditions -  °F | °C
As of 5:00 PM on Thursday 18 Dec 2014 (Local Time) from YPGV Reporting Station
Clear Clear  
Wind Chill: 88°   Ceiling: Unl
Heat Index: 98°   Visibility: 6mi
Dew Point: 75°   Wind: 10mph
Humidity: 66%   Direction: 40°NE
Pressure: 29.74"   Gusts: NA
Location:  12.09°S, 134.89°E
Report Text: YPGV 180800Z 04009KT CAVOK 31/24 Q1007
Loading
Personal Weather Stations






























Interactive Weather Map New forecast layout! Learn more

10-Day Weather Forecast

Advertisements
Track Severe Weather on mobile